sensor_id;sensor_type;location;lat;lon;timestamp;P1;durP1;ratioP1;P2;durP2;ratioP2
52186;SDS011;38161;53.020;6.598;2023-02-18T00:02:17;19.77;;;3.05;;
52186;SDS011;38161;53.020;6.598;2023-02-18T00:04:43;15.53;;;2.97;;
52186;SDS011;38161;53.020;6.598;2023-02-18T00:07:09;20.83;;;3.10;;
52186;SDS011;38161;53.020;6.598;2023-02-18T00:09:34;12.23;;;2.50;;
52186;SDS011;38161;53.020;6.598;2023-02-18T00:12:02;16.15;;;2.97;;
52186;SDS011;38161;53.020;6.598;2023-02-18T00:14:28;11.87;;;2.97;;
52186;SDS011;38161;53.020;6.598;2023-02-18T00:16:54;12.50;;;2.33;;
52186;SDS011;38161;53.020;6.598;2023-02-18T00:19:20;13.30;;;2.90;;
52186;SDS011;38161;53.020;6.598;2023-02-18T00:21:45;16.93;;;2.83;;
52186;SDS011;38161;53.020;6.598;2023-02-18T00:24:12;15.60;;;2.60;;
52186;SDS011;38161;53.020;6.598;2023-02-18T00:26:42;19.20;;;3.10;;
52186;SDS011;38161;53.020;6.598;2023-02-18T00:29:08;21.25;;;3.28;;
52186;SDS011;38161;53.020;6.598;2023-02-18T00:31:35;15.27;;;2.60;;
52186;SDS011;38161;53.020;6.598;2023-02-18T00:34:02;19.90;;;2.97;;
52186;SDS011;38161;53.020;6.598;2023-02-18T00:36:28;17.08;;;3.85;;
52186;SDS011;38161;53.020;6.598;2023-02-18T00:38:59;21.55;;;3.10;;
52186;SDS011;38161;53.020;6.598;2023-02-18T00:41:27;14.23;;;2.65;;
52186;SDS011;38161;53.020;6.598;2023-02-18T00:43:54;15.93;;;2.90;;
52186;SDS011;38161;53.020;6.598;2023-02-18T00:46:20;12.00;;;2.88;;
52186;SDS011;38161;53.020;6.598;2023-02-18T00:48:46;17.80;;;3.28;;
52186;SDS011;38161;53.020;6.598;2023-02-18T00:51:12;16.17;;;3.07;;
52186;SDS011;38161;53.020;6.598;2023-02-18T00:53:38;17.23;;;2.78;;
52186;SDS011;38161;53.020;6.598;2023-02-18T00:56:05;15.23;;;2.90;;
52186;SDS011;38161;53.020;6.598;2023-02-18T00:58:32;15.57;;;2.83;;
52186;SDS011;38161;53.020;6.598;2023-02-18T01:00:58;16.88;;;3.55;;
52186;SDS011;38161;53.020;6.598;2023-02-18T01:03:24;14.30;;;2.67;;
52186;SDS011;38161;53.020;6.598;2023-02-18T01:08:17;13.40;;;2.67;;
52186;SDS011;38161;53.020;6.598;2023-02-18T01:10:45;16.67;;;2.70;;
52186;SDS011;38161;53.020;6.598;2023-02-18T01:13:13;13.95;;;3.30;;
52186;SDS011;38161;53.020;6.598;2023-02-18T01:15:40;14.32;;;3.38;;
52186;SDS011;38161;53.020;6.598;2023-02-18T01:18:07;17.23;;;3.40;;
52186;SDS011;38161;53.020;6.598;2023-02-18T01:20:36;19.83;;;3.42;;
52186;SDS011;38161;53.020;6.598;2023-02-18T01:23:03;19.00;;;3.30;;
52186;SDS011;38161;53.020;6.598;2023-02-18T01:25:30;20.90;;;3.25;;
52186;SDS011;38161;53.020;6.598;2023-02-18T01:27:56;17.48;;;3.53;;
52186;SDS011;38161;53.020;6.598;2023-02-18T01:30:22;18.00;;;3.78;;
52186;SDS011;38161;53.020;6.598;2023-02-18T01:32:48;17.55;;;3.53;;
52186;SDS011;38161;53.020;6.598;2023-02-18T01:35:15;18.92;;;3.92;;
52186;SDS011;38161;53.020;6.598;2023-02-18T01:37:42;19.88;;;3.80;;
52186;SDS011;38161;53.020;6.598;2023-02-18T01:40:10;20.83;;;3.85;;
52186;SDS011;38161;53.020;6.598;2023-02-18T01:42:40;19.35;;;3.50;;
52186;SDS011;38161;53.020;6.598;2023-02-18T01:48:08;20.10;;;4.07;;
52186;SDS011;38161;53.020;6.598;2023-02-18T01:50:42;13.68;;;3.83;;
52186;SDS011;38161;53.020;6.598;2023-02-18T01:53:12;27.30;;;3.90;;
52186;SDS011;38161;53.020;6.598;2023-02-18T01:55:40;20.15;;;4.13;;
52186;SDS011;38161;53.020;6.598;2023-02-18T01:58:06;17.65;;;4.30;;
52186;SDS011;38161;53.020;6.598;2023-02-18T02:00:33;20.55;;;4.75;;
52186;SDS011;38161;53.020;6.598;2023-02-18T02:03:00;17.50;;;4.78;;
52186;SDS011;38161;53.020;6.598;2023-02-18T02:05:29;22.17;;;4.85;;
52186;SDS011;38161;53.020;6.598;2023-02-18T02:07:56;22.02;;;4.57;;
52186;SDS011;38161;53.020;6.598;2023-02-18T02:36:44;21.77;;;6.70;;
52186;SDS011;38161;53.020;6.598;2023-02-18T02:44:52;23.45;;;6.97;;
52186;SDS011;38161;53.020;6.598;2023-02-18T02:47:31;31.48;;;7.30;;
52186;SDS011;38161;53.020;6.598;2023-02-18T02:50:08;24.35;;;7.47;;
52186;SDS011;38161;53.020;6.598;2023-02-18T02:52:45;19.98;;;6.78;;
52186;SDS011;38161;53.020;6.598;2023-02-18T02:55:14;19.95;;;7.40;;
52186;SDS011;38161;53.020;6.598;2023-02-18T03:00:08;23.52;;;8.10;;
52186;SDS011;38161;53.020;6.598;2023-02-18T03:11:21;22.98;;;7.40;;
52186;SDS011;38161;53.020;6.598;2023-02-18T03:16:41;18.50;;;6.85;;
52186;SDS011;38161;53.020;6.598;2023-02-18T03:19:36;22.67;;;7.85;;
52186;SDS011;38161;53.020;6.598;2023-02-18T03:22:07;21.88;;;6.45;;
52186;SDS011;38161;53.020;6.598;2023-02-18T03:24:54;17.52;;;6.70;;
52186;SDS011;38161;53.020;6.598;2023-02-18T03:29:55;21.05;;;7.10;;
52186;SDS011;38161;53.020;6.598;2023-02-18T03:32:26;15.27;;;6.05;;
52186;SDS011;38161;53.020;6.598;2023-02-18T03:34:56;19.35;;;6.40;;
52186;SDS011;38161;53.020;6.598;2023-02-18T03:37:30;13.60;;;6.28;;
52186;SDS011;38161;53.020;6.598;2023-02-18T03:39:59;16.52;;;6.68;;
52186;SDS011;38161;53.020;6.598;2023-02-18T03:42:26;22.42;;;6.93;;
52186;SDS011;38161;53.020;6.598;2023-02-18T03:44:52;21.25;;;7.15;;
52186;SDS011;38161;53.020;6.598;2023-02-18T03:47:18;21.25;;;7.95;;
52186;SDS011;38161;53.020;6.598;2023-02-18T03:49:44;18.85;;;8.02;;
52186;SDS011;38161;53.020;6.598;2023-02-18T03:52:10;22.35;;;8.15;;
52186;SDS011;38161;53.020;6.598;2023-02-18T03:54:36;24.97;;;9.07;;
52186;SDS011;38161;53.020;6.598;2023-02-18T03:57:02;18.95;;;7.30;;
52186;SDS011;38161;53.020;6.598;2023-02-18T03:59:28;20.13;;;8.27;;
52186;SDS011;38161;53.020;6.598;2023-02-18T04:01:53;25.70;;;8.60;;
52186;SDS011;38161;53.020;6.598;2023-02-18T04:04:19;19.70;;;8.20;;
52186;SDS011;38161;53.020;6.598;2023-02-18T04:06:45;26.38;;;8.43;;
52186;SDS011;38161;53.020;6.598;2023-02-18T04:09:11;22.13;;;9.60;;
52186;SDS011;38161;53.020;6.598;2023-02-18T04:11:37;23.77;;;10.13;;
52186;SDS011;38161;53.020;6.598;2023-02-18T04:14:04;24.20;;;10.70;;
52186;SDS011;38161;53.020;6.598;2023-02-18T04:16:30;32.17;;;11.18;;
52186;SDS011;38161;53.020;6.598;2023-02-18T04:18:56;25.55;;;12.55;;
52186;SDS011;38161;53.020;6.598;2023-02-18T04:21:22;24.43;;;11.97;;
52186;SDS011;38161;53.020;6.598;2023-02-18T04:23:48;34.33;;;13.77;;
52186;SDS011;38161;53.020;6.598;2023-02-18T04:26:14;33.03;;;13.80;;
52186;SDS011;38161;53.020;6.598;2023-02-18T04:28:39;36.38;;;14.25;;
52186;SDS011;38161;53.020;6.598;2023-02-18T04:31:05;36.80;;;16.40;;
52186;SDS011;38161;53.020;6.598;2023-02-18T04:33:32;39.67;;;18.60;;
52186;SDS011;38161;53.020;6.598;2023-02-18T04:36:13;42.10;;;18.83;;
52186;SDS011;38161;53.020;6.598;2023-02-18T04:38:39;44.63;;;20.83;;
52186;SDS011;38161;53.020;6.598;2023-02-18T04:41:07;58.05;;;21.50;;
52186;SDS011;38161;53.020;6.598;2023-02-18T04:43:33;57.13;;;22.73;;
52186;SDS011;38161;53.020;6.598;2023-02-18T04:45:58;48.70;;;22.03;;
52186;SDS011;38161;53.020;6.598;2023-02-18T04:48:24;46.93;;;22.00;;
52186;SDS011;38161;53.020;6.598;2023-02-18T04:50:50;44.67;;;23.43;;
52186;SDS011;38161;53.020;6.598;2023-02-18T04:53:16;56.60;;;24.88;;
52186;SDS011;38161;53.020;6.598;2023-02-18T04:55:42;62.42;;;23.25;;
52186;SDS011;38161;53.020;6.598;2023-02-18T04:58:08;53.43;;;23.97;;
52186;SDS011;38161;53.020;6.598;2023-02-18T05:00:34;54.75;;;25.13;;
52186;SDS011;38161;53.020;6.598;2023-02-18T05:03:00;63.93;;;26.43;;
52186;SDS011;38161;53.020;6.598;2023-02-18T05:05:26;54.77;;;25.60;;
52186;SDS011;38161;53.020;6.598;2023-02-18T05:07:51;61.90;;;26.57;;
52186;SDS011;38161;53.020;6.598;2023-02-18T05:10:17;65.17;;;27.67;;
52186;SDS011;38161;53.020;6.598;2023-02-18T05:12:43;72.53;;;27.93;;
52186;SDS011;38161;53.020;6.598;2023-02-18T05:15:09;59.20;;;27.25;;
52186;SDS011;38161;53.020;6.598;2023-02-18T05:17:34;65.53;;;27.60;;
52186;SDS011;38161;53.020;6.598;2023-02-18T05:20:00;65.37;;;28.70;;
52186;SDS011;38161;53.020;6.598;2023-02-18T05:22:26;62.05;;;26.55;;
52186;SDS011;38161;53.020;6.598;2023-02-18T05:24:52;61.77;;;26.47;;
52186;SDS011;38161;53.020;6.598;2023-02-18T05:27:18;48.58;;;25.73;;
52186;SDS011;38161;53.020;6.598;2023-02-18T05:29:44;56.10;;;27.40;;
52186;SDS011;38161;53.020;6.598;2023-02-18T05:32:09;58.63;;;25.97;;
52186;SDS011;38161;53.020;6.598;2023-02-18T05:34:35;55.30;;;26.80;;
52186;SDS011;38161;53.020;6.598;2023-02-18T05:37:01;58.73;;;27.37;;
52186;SDS011;38161;53.020;6.598;2023-02-18T05:39:27;55.93;;;26.40;;
52186;SDS011;38161;53.020;6.598;2023-02-18T05:41:52;56.50;;;25.80;;
52186;SDS011;38161;53.020;6.598;2023-02-18T05:44:18;43.73;;;24.00;;
52186;SDS011;38161;53.020;6.598;2023-02-18T05:46:57;52.67;;;25.55;;
52186;SDS011;38161;53.020;6.598;2023-02-18T05:49:30;53.97;;;25.23;;
52186;SDS011;38161;53.020;6.598;2023-02-18T05:51:57;48.00;;;24.50;;
52186;SDS011;38161;53.020;6.598;2023-02-18T05:54:23;52.88;;;25.50;;
52186;SDS011;38161;53.020;6.598;2023-02-18T05:56:50;42.33;;;21.65;;
52186;SDS011;38161;53.020;6.598;2023-02-18T05:59:16;47.03;;;23.48;;
52186;SDS011;38161;53.020;6.598;2023-02-18T06:01:42;42.85;;;21.60;;
52186;SDS011;38161;53.020;6.598;2023-02-18T06:04:08;46.15;;;21.85;;
52186;SDS011;38161;53.020;6.598;2023-02-18T06:06:35;43.35;;;20.23;;
52186;SDS011;38161;53.020;6.598;2023-02-18T06:09:00;43.37;;;21.53;;
52186;SDS011;38161;53.020;6.598;2023-02-18T06:11:26;38.70;;;18.95;;
52186;SDS011;38161;53.020;6.598;2023-02-18T06:13:52;35.83;;;17.55;;
52186;SDS011;38161;53.020;6.598;2023-02-18T06:16:18;39.40;;;18.07;;
52186;SDS011;38161;53.020;6.598;2023-02-18T06:18:43;47.13;;;19.73;;
52186;SDS011;38161;53.020;6.598;2023-02-18T06:21:09;37.47;;;18.40;;
52186;SDS011;38161;53.020;6.598;2023-02-18T06:23:35;37.20;;;17.80;;
52186;SDS011;38161;53.020;6.598;2023-02-18T06:26:01;31.73;;;15.33;;
52186;SDS011;38161;53.020;6.598;2023-02-18T06:28:26;30.27;;;15.50;;
52186;SDS011;38161;53.020;6.598;2023-02-18T06:30:52;31.70;;;15.33;;
52186;SDS011;38161;53.020;6.598;2023-02-18T06:33:18;22.55;;;11.07;;
52186;SDS011;38161;53.020;6.598;2023-02-18T06:35:57;22.83;;;10.48;;
52186;SDS011;38161;53.020;6.598;2023-02-18T06:38:25;21.42;;;10.95;;
52186;SDS011;38161;53.020;6.598;2023-02-18T06:40:52;17.35;;;9.75;;
52186;SDS011;38161;53.020;6.598;2023-02-18T06:43:18;18.00;;;9.80;;
52186;SDS011;38161;53.020;6.598;2023-02-18T06:48:10;16.83;;;9.00;;
52186;SDS011;38161;53.020;6.598;2023-02-18T06:50:36;15.63;;;9.13;;
52186;SDS011;38161;53.020;6.598;2023-02-18T06:53:02;19.33;;;9.80;;
52186;SDS011;38161;53.020;6.598;2023-02-18T06:55:28;17.48;;;10.10;;
52186;SDS011;38161;53.020;6.598;2023-02-18T06:57:53;19.65;;;10.73;;
52186;SDS011;38161;53.020;6.598;2023-02-18T07:00:19;19.83;;;11.23;;
52186;SDS011;38161;53.020;6.598;2023-02-18T07:02:46;20.40;;;11.25;;
52186;SDS011;38161;53.020;6.598;2023-02-18T07:05:12;18.65;;;11.93;;
52186;SDS011;38161;53.020;6.598;2023-02-18T07:07:38;20.98;;;12.40;;
52186;SDS011;38161;53.020;6.598;2023-02-18T07:10:04;27.73;;;14.20;;
52186;SDS011;38161;53.020;6.598;2023-02-18T07:14:56;25.85;;;14.30;;
52186;SDS011;38161;53.020;6.598;2023-02-18T07:17:22;26.90;;;15.57;;
52186;SDS011;38161;53.020;6.598;2023-02-18T07:19:47;24.93;;;15.37;;
52186;SDS011;38161;53.020;6.598;2023-02-18T07:22:13;32.40;;;16.23;;
52186;SDS011;38161;53.020;6.598;2023-02-18T07:24:39;28.23;;;15.53;;
52186;SDS011;38161;53.020;6.598;2023-02-18T07:27:05;30.90;;;16.55;;
52186;SDS011;38161;53.020;6.598;2023-02-18T07:29:30;31.02;;;16.60;;
52186;SDS011;38161;53.020;6.598;2023-02-18T07:31:56;30.13;;;15.07;;
52186;SDS011;38161;53.020;6.598;2023-02-18T07:34:22;29.67;;;16.33;;
52186;SDS011;38161;53.020;6.598;2023-02-18T07:36:47;27.93;;;15.67;;
52186;SDS011;38161;53.020;6.598;2023-02-18T07:39:13;23.03;;;14.20;;
52186;SDS011;38161;53.020;6.598;2023-02-18T07:41:40;28.58;;;14.07;;
52186;SDS011;38161;53.020;6.598;2023-02-18T07:44:06;23.40;;;14.27;;
52186;SDS011;38161;53.020;6.598;2023-02-18T07:46:31;24.97;;;13.40;;
52186;SDS011;38161;53.020;6.598;2023-02-18T07:48:57;28.50;;;14.33;;
52186;SDS011;38161;53.020;6.598;2023-02-18T07:51:23;21.00;;;12.90;;
52186;SDS011;38161;53.020;6.598;2023-02-18T07:53:49;27.92;;;13.65;;
52186;SDS011;38161;53.020;6.598;2023-02-18T07:56:15;24.95;;;12.85;;
52186;SDS011;38161;53.020;6.598;2023-02-18T07:58:42;29.83;;;13.55;;
52186;SDS011;38161;53.020;6.598;2023-02-18T08:01:09;28.80;;;12.13;;
52186;SDS011;38161;53.020;6.598;2023-02-18T08:03:38;28.60;;;11.00;;
52186;SDS011;38161;53.020;6.598;2023-02-18T08:06:04;23.10;;;10.73;;
52186;SDS011;38161;53.020;6.598;2023-02-18T08:10:58;19.33;;;8.88;;
52186;SDS011;38161;53.020;6.598;2023-02-18T08:13:26;22.52;;;9.48;;
52186;SDS011;38161;53.020;6.598;2023-02-18T08:15:55;23.75;;;9.27;;
52186;SDS011;38161;53.020;6.598;2023-02-18T08:18:22;19.75;;;9.15;;
52186;SDS011;38161;53.020;6.598;2023-02-18T08:20:49;20.50;;;8.25;;
52186;SDS011;38161;53.020;6.598;2023-02-18T08:23:17;16.75;;;7.55;;
52186;SDS011;38161;53.020;6.598;2023-02-18T08:25:47;20.42;;;8.20;;
52186;SDS011;38161;53.020;6.598;2023-02-18T08:28:14;16.75;;;7.70;;
52186;SDS011;38161;53.020;6.598;2023-02-18T08:30:45;16.60;;;6.93;;
52186;SDS011;38161;53.020;6.598;2023-02-18T08:33:12;13.57;;;6.78;;
52186;SDS011;38161;53.020;6.598;2023-02-18T08:35:37;15.30;;;7.00;;
52186;SDS011;38161;53.020;6.598;2023-02-18T08:38:03;18.58;;;7.78;;
52186;SDS011;38161;53.020;6.598;2023-02-18T08:40:29;14.18;;;5.78;;
52186;SDS011;38161;53.020;6.598;2023-02-18T08:42:55;20.65;;;7.90;;
52186;SDS011;38161;53.020;6.598;2023-02-18T08:45:21;16.07;;;6.90;;
52186;SDS011;38161;53.020;6.598;2023-02-18T08:47:46;20.67;;;6.80;;
52186;SDS011;38161;53.020;6.598;2023-02-18T08:50:12;16.33;;;6.73;;
52186;SDS011;38161;53.020;6.598;2023-02-18T08:52:38;17.80;;;7.13;;
52186;SDS011;38161;53.020;6.598;2023-02-18T08:55:04;21.67;;;7.20;;
52186;SDS011;38161;53.020;6.598;2023-02-18T08:57:30;20.48;;;7.43;;
52186;SDS011;38161;53.020;6.598;2023-02-18T08:59:56;17.15;;;6.85;;
52186;SDS011;38161;53.020;6.598;2023-02-18T09:02:22;14.20;;;6.85;;
52186;SDS011;38161;53.020;6.598;2023-02-18T09:04:47;16.03;;;6.30;;
52186;SDS011;38161;53.020;6.598;2023-02-18T09:07:13;14.27;;;6.50;;
52186;SDS011;38161;53.020;6.598;2023-02-18T09:09:39;16.30;;;6.00;;
52186;SDS011;38161;53.020;6.598;2023-02-18T09:12:06;17.45;;;6.32;;
52186;SDS011;38161;53.020;6.598;2023-02-18T09:14:32;12.98;;;5.63;;
52186;SDS011;38161;53.020;6.598;2023-02-18T09:16:58;11.48;;;5.57;;
52186;SDS011;38161;53.020;6.598;2023-02-18T09:19:25;12.82;;;4.85;;
52186;SDS011;38161;53.020;6.598;2023-02-18T09:21:51;12.82;;;4.63;;
52186;SDS011;38161;53.020;6.598;2023-02-18T09:24:17;13.77;;;5.03;;
52186;SDS011;38161;53.020;6.598;2023-02-18T09:26:44;11.77;;;4.43;;
52186;SDS011;38161;53.020;6.598;2023-02-18T09:29:10;13.10;;;4.40;;
52186;SDS011;38161;53.020;6.598;2023-02-18T09:31:36;11.13;;;4.55;;
52186;SDS011;38161;53.020;6.598;2023-02-18T09:34:03;14.00;;;4.45;;
52186;SDS011;38161;53.020;6.598;2023-02-18T09:36:30;15.13;;;4.60;;
52186;SDS011;38161;53.020;6.598;2023-02-18T09:38:56;12.52;;;4.55;;
52186;SDS011;38161;53.020;6.598;2023-02-18T09:44:10;11.97;;;4.93;;
52186;SDS011;38161;53.020;6.598;2023-02-18T09:49:53;12.38;;;4.13;;
52186;SDS011;38161;53.020;6.598;2023-02-18T09:52:29;13.10;;;4.40;;
52186;SDS011;38161;53.020;6.598;2023-02-18T09:54:58;13.40;;;4.43;;
52186;SDS011;38161;53.020;6.598;2023-02-18T10:00:05;17.55;;;4.10;;
52186;SDS011;38161;53.020;6.598;2023-02-18T10:02:42;19.63;;;4.60;;
52186;SDS011;38161;53.020;6.598;2023-02-18T10:05:22;16.23;;;3.85;;
52186;SDS011;38161;53.020;6.598;2023-02-18T10:07:51;13.70;;;3.75;;
52186;SDS011;38161;53.020;6.598;2023-02-18T10:10:20;15.68;;;4.03;;
52186;SDS011;38161;53.020;6.598;2023-02-18T10:13:15;17.55;;;3.80;;
52186;SDS011;38161;53.020;6.598;2023-02-18T10:15:43;17.05;;;4.05;;
52186;SDS011;38161;53.020;6.598;2023-02-18T10:20:47;20.17;;;4.05;;
52186;SDS011;38161;53.020;6.598;2023-02-18T10:23:15;16.90;;;3.53;;
52186;SDS011;38161;53.020;6.598;2023-02-18T10:25:42;15.80;;;3.35;;
52186;SDS011;38161;53.020;6.598;2023-02-18T10:28:10;14.27;;;3.13;;
52186;SDS011;38161;53.020;6.598;2023-02-18T10:30:39;16.40;;;3.40;;
52186;SDS011;38161;53.020;6.598;2023-02-18T10:42:17;16.30;;;3.50;;
52186;SDS011;38161;53.020;6.598;2023-02-18T10:44:52;15.40;;;3.30;;
52186;SDS011;38161;53.020;6.598;2023-02-18T10:47:41;9.80;;;2.53;;
52186;SDS011;38161;53.020;6.598;2023-02-18T10:52:48;13.73;;;3.22;;
52186;SDS011;38161;53.020;6.598;2023-02-18T10:55:16;14.35;;;3.90;;
52186;SDS011;38161;53.020;6.598;2023-02-18T10:57:52;15.38;;;3.17;;
52186;SDS011;38161;53.020;6.598;2023-02-18T11:00:20;13.53;;;3.20;;
52186;SDS011;38161;53.020;6.598;2023-02-18T11:03:09;16.92;;;3.30;;
52186;SDS011;38161;53.020;6.598;2023-02-18T11:05:37;13.55;;;2.88;;
52186;SDS011;38161;53.020;6.598;2023-02-18T11:08:05;11.98;;;3.53;;
52186;SDS011;38161;53.020;6.598;2023-02-18T11:10:39;18.48;;;3.20;;
52186;SDS011;38161;53.020;6.598;2023-02-18T11:13:08;14.45;;;2.88;;
52186;SDS011;38161;53.020;6.598;2023-02-18T11:15:36;18.40;;;3.65;;
52186;SDS011;38161;53.020;6.598;2023-02-18T11:18:12;10.63;;;2.70;;
52186;SDS011;38161;53.020;6.598;2023-02-18T11:20:55;9.82;;;3.35;;
52186;SDS011;38161;53.020;6.598;2023-02-18T11:23:23;13.18;;;3.13;;
52186;SDS011;38161;53.020;6.598;2023-02-18T11:30:44;15.77;;;3.40;;
52186;SDS011;38161;53.020;6.598;2023-02-18T11:33:20;16.00;;;3.15;;
52186;SDS011;38161;53.020;6.598;2023-02-18T11:35:50;17.15;;;3.35;;
52186;SDS011;38161;53.020;6.598;2023-02-18T11:39:03;16.77;;;3.85;;
52186;SDS011;38161;53.020;6.598;2023-02-18T11:41:07;12.98;;;2.60;;
52186;SDS011;38161;53.020;6.598;2023-02-18T11:43:35;14.27;;;2.90;;
52186;SDS011;38161;53.020;6.598;2023-02-18T11:46:15;13.43;;;3.42;;
52186;SDS011;38161;53.020;6.598;2023-02-18T11:48:45;16.08;;;3.10;;
52186;SDS011;38161;53.020;6.598;2023-02-18T11:54:01;15.02;;;3.05;;
52186;SDS011;38161;53.020;6.598;2023-02-18T11:56:33;15.82;;;3.53;;
52186;SDS011;38161;53.020;6.598;2023-02-18T11:59:00;11.65;;;3.25;;
52186;SDS011;38161;53.020;6.598;2023-02-18T12:01:40;11.38;;;2.92;;
52186;SDS011;38161;53.020;6.598;2023-02-18T12:04:14;15.82;;;3.35;;
52186;SDS011;38161;53.020;6.598;2023-02-18T12:06:48;15.80;;;3.58;;
52186;SDS011;38161;53.020;6.598;2023-02-18T12:09:31;16.40;;;3.60;;
52186;SDS011;38161;53.020;6.598;2023-02-18T12:12:04;13.18;;;2.95;;
52186;SDS011;38161;53.020;6.598;2023-02-18T12:14:35;10.80;;;3.10;;
52186;SDS011;38161;53.020;6.598;2023-02-18T12:30:56;16.08;;;3.22;;
52186;SDS011;38161;53.020;6.598;2023-02-18T12:57:58;14.68;;;3.55;;
52186;SDS011;38161;53.020;6.598;2023-02-18T13:03:30;19.55;;;3.17;;
52186;SDS011;38161;53.020;6.598;2023-02-18T13:16:49;15.88;;;3.58;;
52186;SDS011;38161;53.020;6.598;2023-02-18T13:22:09;13.70;;;2.95;;
52186;SDS011;38161;53.020;6.598;2023-02-18T13:24:38;18.52;;;3.22;;
52186;SDS011;38161;53.020;6.598;2023-02-18T13:27:13;16.17;;;3.47;;
52186;SDS011;38161;53.020;6.598;2023-02-18T13:32:36;17.73;;;2.83;;
52186;SDS011;38161;53.020;6.598;2023-02-18T13:35:27;15.85;;;3.08;;
52186;SDS011;38161;53.020;6.598;2023-02-18T13:40:28;10.48;;;2.40;;
52186;SDS011;38161;53.020;6.598;2023-02-18T13:46:10;8.90;;;2.63;;
52186;SDS011;38161;53.020;6.598;2023-02-18T13:51:38;12.00;;;2.72;;
52186;SDS011;38161;53.020;6.598;2023-02-18T13:56:40;15.27;;;3.00;;
52186;SDS011;38161;53.020;6.598;2023-02-18T14:01:55;12.88;;;2.92;;
52186;SDS011;38161;53.020;6.598;2023-02-18T14:09:43;11.73;;;3.23;;
52186;SDS011;38161;53.020;6.598;2023-02-18T14:14:49;10.88;;;2.70;;
52186;SDS011;38161;53.020;6.598;2023-02-18T14:24:54;17.13;;;3.17;;
52186;SDS011;38161;53.020;6.598;2023-02-18T14:27:28;14.60;;;3.75;;
52186;SDS011;38161;53.020;6.598;2023-02-18T14:29:54;12.43;;;3.07;;
52186;SDS011;38161;53.020;6.598;2023-02-18T14:35:17;13.75;;;2.80;;
52186;SDS011;38161;53.020;6.598;2023-02-18T14:40:48;14.82;;;2.72;;
52186;SDS011;38161;53.020;6.598;2023-02-18T14:43:27;16.60;;;3.25;;
52186;SDS011;38161;53.020;6.598;2023-02-18T14:46:12;15.98;;;3.53;;
52186;SDS011;38161;53.020;6.598;2023-02-18T14:49:01;9.82;;;2.65;;
52186;SDS011;38161;53.020;6.598;2023-02-18T14:51:53;15.15;;;2.75;;
52186;SDS011;38161;53.020;6.598;2023-02-18T14:54:22;11.80;;;2.45;;
52186;SDS011;38161;53.020;6.598;2023-02-18T14:57:00;14.63;;;3.83;;
52186;SDS011;38161;53.020;6.598;2023-02-18T14:59:30;11.95;;;2.45;;
52186;SDS011;38161;53.020;6.598;2023-02-18T15:02:00;14.63;;;2.90;;
52186;SDS011;38161;53.020;6.598;2023-02-18T15:04:26;13.48;;;3.03;;
52186;SDS011;38161;53.020;6.598;2023-02-18T15:06:59;13.85;;;2.78;;
52186;SDS011;38161;53.020;6.598;2023-02-18T15:09:26;15.23;;;2.20;;
52186;SDS011;38161;53.020;6.598;2023-02-18T15:11:59;12.73;;;2.08;;
52186;SDS011;38161;53.020;6.598;2023-02-18T15:14:35;12.20;;;2.60;;
52186;SDS011;38161;53.020;6.598;2023-02-18T15:17:04;13.45;;;2.58;;
52186;SDS011;38161;53.020;6.598;2023-02-18T15:19:39;10.50;;;2.42;;
52186;SDS011;38161;53.020;6.598;2023-02-18T15:22:30;13.10;;;2.72;;
52186;SDS011;38161;53.020;6.598;2023-02-18T15:24:58;15.32;;;3.20;;
52186;SDS011;38161;53.020;6.598;2023-02-18T15:27:26;11.32;;;2.55;;
52186;SDS011;38161;53.020;6.598;2023-02-18T15:30:12;15.60;;;3.60;;
52186;SDS011;38161;53.020;6.598;2023-02-18T15:32:58;12.15;;;2.88;;
52186;SDS011;38161;53.020;6.598;2023-02-18T15:35:27;17.45;;;3.17;;
52186;SDS011;38161;53.020;6.598;2023-02-18T15:37:56;11.73;;;2.70;;
52186;SDS011;38161;53.020;6.598;2023-02-18T15:40:33;14.60;;;3.13;;
52186;SDS011;38161;53.020;6.598;2023-02-18T15:43:03;13.75;;;2.58;;
52186;SDS011;38161;53.020;6.598;2023-02-18T15:48:01;12.82;;;2.67;;
52186;SDS011;38161;53.020;6.598;2023-02-18T15:52:56;14.00;;;2.67;;
52186;SDS011;38161;53.020;6.598;2023-02-18T15:55:30;21.73;;;2.90;;
52186;SDS011;38161;53.020;6.598;2023-02-18T15:58:02;13.20;;;3.22;;
52186;SDS011;38161;53.020;6.598;2023-02-18T16:00:32;19.13;;;3.13;;
52186;SDS011;38161;53.020;6.598;2023-02-18T16:03:18;11.57;;;2.53;;
52186;SDS011;38161;53.020;6.598;2023-02-18T16:05:44;19.23;;;3.40;;
52186;SDS011;38161;53.020;6.598;2023-02-18T16:08:14;17.50;;;3.60;;
52186;SDS011;38161;53.020;6.598;2023-02-18T16:10:52;14.80;;;3.25;;
52186;SDS011;38161;53.020;6.598;2023-02-18T16:13:19;10.20;;;2.92;;
52186;SDS011;38161;53.020;6.598;2023-02-18T16:15:46;14.57;;;3.03;;
52186;SDS011;38161;53.020;6.598;2023-02-18T16:18:34;18.50;;;3.03;;
52186;SDS011;38161;53.020;6.598;2023-02-18T16:21:01;17.42;;;3.65;;
52186;SDS011;38161;53.020;6.598;2023-02-18T16:23:57;14.73;;;2.93;;
52186;SDS011;38161;53.020;6.598;2023-02-18T16:29:00;13.18;;;2.72;;
52186;SDS011;38161;53.020;6.598;2023-02-18T16:31:34;19.27;;;3.83;;
52186;SDS011;38161;53.020;6.598;2023-02-18T16:34:00;10.97;;;3.30;;
52186;SDS011;38161;53.020;6.598;2023-02-18T16:36:25;17.13;;;3.50;;
52186;SDS011;38161;53.020;6.598;2023-02-18T16:38:51;13.70;;;2.85;;
52186;SDS011;38161;53.020;6.598;2023-02-18T16:41:17;16.25;;;3.33;;
52186;SDS011;38161;53.020;6.598;2023-02-18T16:43:43;19.50;;;3.03;;
52186;SDS011;38161;53.020;6.598;2023-02-18T16:46:14;17.67;;;4.27;;
52186;SDS011;38161;53.020;6.598;2023-02-18T16:48:44;15.27;;;3.00;;
52186;SDS011;38161;53.020;6.598;2023-02-18T16:51:14;14.60;;;2.90;;
52186;SDS011;38161;53.020;6.598;2023-02-18T16:53:59;14.68;;;3.00;;
52186;SDS011;38161;53.020;6.598;2023-02-18T16:56:26;14.68;;;2.83;;
52186;SDS011;38161;53.020;6.598;2023-02-18T16:58:56;14.38;;;3.00;;
52186;SDS011;38161;53.020;6.598;2023-02-18T17:03:56;15.70;;;3.83;;
52186;SDS011;38161;53.020;6.598;2023-02-18T17:06:23;14.93;;;3.35;;
52186;SDS011;38161;53.020;6.598;2023-02-18T17:08:49;17.40;;;3.55;;
52186;SDS011;38161;53.020;6.598;2023-02-18T17:13:50;22.15;;;4.00;;
52186;SDS011;38161;53.020;6.598;2023-02-18T17:16:17;20.20;;;3.30;;
52186;SDS011;38161;53.020;6.598;2023-02-18T17:18:51;16.52;;;4.53;;
52186;SDS011;38161;53.020;6.598;2023-02-18T17:21:22;19.95;;;4.97;;
52186;SDS011;38161;53.020;6.598;2023-02-18T17:23:49;17.25;;;4.25;;
52186;SDS011;38161;53.020;6.598;2023-02-18T17:26:20;20.30;;;4.20;;
52186;SDS011;38161;53.020;6.598;2023-02-18T17:28:51;21.13;;;4.80;;
52186;SDS011;38161;53.020;6.598;2023-02-18T17:31:20;18.70;;;3.65;;
52186;SDS011;38161;53.020;6.598;2023-02-18T17:33:52;19.88;;;3.95;;
52186;SDS011;38161;53.020;6.598;2023-02-18T17:36:19;18.85;;;3.55;;
52186;SDS011;38161;53.020;6.598;2023-02-18T17:38:45;19.13;;;4.40;;
52186;SDS011;38161;53.020;6.598;2023-02-18T17:41:13;19.43;;;3.47;;
52186;SDS011;38161;53.020;6.598;2023-02-18T17:43:39;18.95;;;4.55;;
52186;SDS011;38161;53.020;6.598;2023-02-18T17:46:07;17.00;;;3.47;;
52186;SDS011;38161;53.020;6.598;2023-02-18T17:48:37;16.20;;;3.47;;
52186;SDS011;38161;53.020;6.598;2023-02-18T17:51:03;13.38;;;2.95;;
52186;SDS011;38161;53.020;6.598;2023-02-18T17:53:31;17.05;;;3.72;;
52186;SDS011;38161;53.020;6.598;2023-02-18T17:55:57;18.52;;;3.20;;
52186;SDS011;38161;53.020;6.598;2023-02-18T17:58:23;24.33;;;4.85;;
52186;SDS011;38161;53.020;6.598;2023-02-18T18:00:53;17.30;;;4.17;;